Time;durP1;ratioP1;P1;durP2;ratioP2;P2;SDS_P1;SDS_P2;PMS_P1;PMS_P2;Temp;Humidity;BMP_temperature;BMP_pressure;BME280_temperature;BME280_humidity;BME280_pressure;Samples;Min_cycle;Max_cycle;Signal;HPM_P1;HPM_P2
2022/09/18 00:01:26;;;;;;;1.20;1.20;;;;;;;24.43;63.62;97296.03;5016092;28;20221;-30
2022/09/18 00:03:53;;;;;;;1.47;1.37;;;;;;;24.45;63.27;97298.63;5015016;28;20672;-30
2022/09/18 00:06:21;;;;;;;1.43;1.33;;;;;;;24.43;63.73;97296.03;5015676;28;20689;-30
2022/09/18 00:08:51;;;;;;;1.50;1.40;;;;;;;24.43;63.45;97301.19;5022967;28;20579;-30
2022/09/18 00:11:19;;;;;;;1.40;1.30;;;;;;;24.43;63.65;97302.88;5026005;28;20290;-30
2022/09/18 00:13:46;;;;;;;1.40;1.30;;;;;;;24.44;63.16;97312.28;5020066;28;20206;-30
2022/09/18 00:16:13;;;;;;;1.30;1.20;;;;;;;24.40;63.24;97306.28;5015227;28;20201;-30
2022/09/18 00:18:40;;;;;;;1.50;1.40;;;;;;;24.43;63.49;97305.44;5024730;28;20205;-29
2022/09/18 00:21:08;;;;;;;1.30;1.20;;;;;;;24.43;63.34;97308.88;5014980;28;20214;-30
2022/09/18 00:23:35;;;;;;;1.20;1.20;;;;;;;24.42;63.31;97311.44;5017036;28;20464;-30
2022/09/18 00:26:03;;;;;;;1.43;1.33;;;;;;;24.43;63.53;97314.03;5020270;28;20632;-30
2022/09/18 00:28:29;;;;;;;1.27;1.27;;;;;;;24.40;63.52;97302.81;5016000;28;20210;-30
2022/09/18 00:31:03;;;;;;;1.10;1.10;;;;;;;24.44;63.33;97309.72;5019670;28;20287;-29
2022/09/18 00:33:30;;;;;;;1.47;1.37;;;;;;;24.45;63.28;97314.03;5014484;28;20311;-29
2022/09/18 00:36:00;;;;;;;1.50;1.40;;;;;;;24.44;63.44;97314.88;5030484;28;20662;-29
2022/09/18 00:38:27;;;;;;;1.20;1.20;;;;;;;24.44;63.45;97310.59;5024842;28;20670;-30
2022/09/18 00:40:54;;;;;;;1.50;1.40;;;;;;;24.44;63.04;97318.31;5016336;28;20269;-30
2022/09/18 00:43:22;;;;;;;1.50;1.40;;;;;;;24.44;63.36;97315.75;5019472;28;20198;-30
2022/09/18 00:46:04;;;;;;;1.20;1.20;;;;;;;24.44;63.45;97317.44;5028191;28;20700;-29
2022/09/18 00:48:39;;;;;;;1.47;1.33;;;;;;;24.45;63.11;97320.03;5016207;28;20285;-30
2022/09/18 00:51:06;;;;;;;1.40;1.30;;;;;;;24.42;63.18;97312.28;5018875;28;20719;-30
2022/09/18 00:53:32;;;;;;;1.33;1.23;;;;;;;24.37;63.09;97307.91;5013571;28;20229;-30
2022/09/18 00:55:59;;;;;;;1.50;1.40;;;;;;;24.44;63.12;97320.88;5010413;28;20209;-30
2022/09/18 00:58:25;;;;;;;1.47;1.37;;;;;;;24.41;63.28;97302.84;5023904;28;20201;-30
2022/09/18 01:00:54;;;;;;;1.30;1.30;;;;;;;24.44;63.36;97314.88;5003637;28;20213;-30
2022/09/18 01:03:20;;;;;;;1.27;1.27;;;;;;;24.45;63.23;97316.63;5029302;28;20293;-30
2022/09/18 01:05:50;;;;;;;1.20;1.10;;;;;;;24.44;63.39;97315.75;5014419;28;20665;-29
2022/09/18 01:08:23;;;;;;;1.40;1.30;;;;;;;24.45;63.22;97321.75;5018697;28;20277;-30
2022/09/18 01:11:19;;;;;;;1.40;1.30;;;;;;;24.45;63.52;97320.03;5012723;28;20222;-30
2022/09/18 01:14:30;;;;;;;1.20;1.20;;;;;;;24.45;63.38;97319.19;5014114;28;20734;-30
2022/09/18 01:17:20;;;;;;;1.23;1.23;;;;;;;24.45;62.90;97316.63;5022057;28;20202;-30
2022/09/18 01:20:07;;;;;;;1.30;1.30;;;;;;;24.44;63.36;97320.00;5010999;28;20226;-30
2022/09/18 01:22:33;;;;;;;1.40;1.30;;;;;;;24.43;63.08;97318.28;5016730;28;20198;-29
2022/09/18 01:25:13;;;;;;;1.40;1.30;;;;;;;24.36;63.33;97303.59;5019832;28;20232;-30
2022/09/18 01:27:53;;;;;;;1.20;1.20;;;;;;;24.42;63.50;97326.84;5014097;28;20652;-30
2022/09/18 01:30:20;;;;;;;1.63;1.53;;;;;;;24.40;63.55;97321.69;5015540;28;20232;-29
2022/09/18 01:32:54;;;;;;;1.57;1.47;;;;;;;24.34;63.23;97305.31;5020611;28;20226;-30
2022/09/18 01:35:25;;;;;;;1.20;1.20;;;;;;;24.41;63.27;97317.38;5017262;28;20676;-30
2022/09/18 01:38:26;;;;;;;1.37;1.27;;;;;;;24.41;63.67;97320.84;5017120;28;20198;-31
2022/09/18 01:41:00;;;;;;;1.33;1.23;;;;;;;24.37;63.07;97315.63;5016045;28;20218;-30
2022/09/18 01:43:27;;;;;;;1.47;1.37;;;;;;;24.41;63.35;97318.25;5016141;28;20218;-30
2022/09/18 01:45:54;;;;;;;1.20;1.20;;;;;;;24.41;63.02;97309.69;5022921;28;20198;-30
2022/09/18 01:48:27;;;;;;;1.20;1.20;;;;;;;24.41;63.25;97310.56;5015216;28;20257;-30
2022/09/18 01:50:55;;;;;;;1.23;1.23;;;;;;;24.41;62.94;97305.41;5011482;28;20229;-30
2022/09/18 01:53:35;;;;;;;1.47;1.37;;;;;;;24.42;63.05;97306.28;5025217;28;20241;-30
2022/09/18 01:56:23;;;;;;;1.50;1.40;;;;;;;24.42;63.39;97306.28;5013971;28;20565;-31
2022/09/18 01:58:50;;;;;;;1.60;1.50;;;;;;;24.42;63.21;97302.00;5017837;28;20206;-30
2022/09/18 02:01:18;;;;;;;1.30;1.20;;;;;;;24.34;63.41;97287.31;5015916;28;20200;-30
2022/09/18 02:04:00;;;;;;;1.40;1.30;;;;;;;24.36;62.99;97288.19;5018484;28;20262;-30
2022/09/18 02:06:39;;;;;;;1.30;1.20;;;;;;;24.41;63.12;97295.16;5015273;28;20213;-30
2022/09/18 02:09:06;;;;;;;1.40;1.30;;;;;;;24.42;63.26;97291.72;5022878;28;20221;-31
2022/09/18 02:11:33;;;;;;;1.40;1.30;;;;;;;24.42;62.90;97289.16;5015042;28;20560;-30
2022/09/18 02:14:13;;;;;;;1.50;1.40;;;;;;;24.42;63.17;97286.59;5025056;28;20732;-30
2022/09/18 02:16:47;;;;;;;1.30;1.20;;;;;;;24.43;63.10;97284.88;5019866;28;20282;-30
2022/09/18 02:19:37;;;;;;;1.20;1.10;;;;;;;24.42;62.96;97276.31;5027536;28;20222;-30
2022/09/18 02:22:06;;;;;;;1.40;1.30;;;;;;;24.43;63.38;97277.19;5016071;28;20207;-30
2022/09/18 02:24:33;;;;;;;1.10;1.10;;;;;;;24.43;62.86;97279.75;5023911;28;20695;-30
2022/09/18 02:27:00;;;;;;;1.10;1.10;;;;;;;24.43;62.92;97279.75;4999057;28;20202;-29
2022/09/18 02:29:27;;;;;;;1.30;1.20;;;;;;;24.43;63.09;97272.03;5022643;28;20232;-30
2022/09/18 02:31:53;;;;;;;1.50;1.40;;;;;;;24.43;62.92;97269.47;5017341;28;20201;-31
2022/09/18 02:34:20;;;;;;;1.30;1.20;;;;;;;24.43;62.96;97272.91;5025694;28;20194;-31
2022/09/18 02:37:14;;;;;;;1.20;1.20;;;;;;;24.43;63.17;97272.91;5026087;28;20216;-31
2022/09/18 02:40:00;;;;;;;1.17;1.17;;;;;;;24.43;62.79;97287.47;5024864;28;20584;-31
2022/09/18 02:42:43;;;;;;;1.20;1.20;;;;;;;24.42;63.04;97281.44;5024691;28;20202;-31
2022/09/18 02:45:16;;;;;;;1.33;1.23;;;;;;;24.43;63.20;97282.31;5026925;28;20199;-31
2022/09/18 02:48:01;;;;;;;1.20;1.20;;;;;;;24.43;62.94;97284.88;5021527;28;20198;-31
2022/09/18 02:50:33;;;;;;;1.47;1.37;;;;;;;24.42;62.93;97286.59;5019589;28;20230;-31
2022/09/18 02:53:09;;;;;;;1.10;1.10;;;;;;;24.42;63.11;97286.59;5021163;28;20221;-31
2022/09/18 02:55:42;;;;;;;1.20;1.20;;;;;;;24.42;62.98;97290.88;5015046;28;20201;-31
2022/09/18 02:58:16;;;;;;;1.40;1.30;;;;;;;24.36;63.01;97278.78;5022038;28;20202;-31
2022/09/18 03:00:43;;;;;;;1.30;1.20;;;;;;;24.41;63.07;97296.84;5014959;28;20217;-31
2022/09/18 03:03:12;;;;;;;1.50;1.40;;;;;;;24.43;62.93;97297.72;5018446;28;20205;-31
2022/09/18 03:05:39;;;;;;;1.07;1.07;;;;;;;24.43;63.11;97285.75;5022349;28;20206;-31
2022/09/18 03:08:05;;;;;;;1.27;1.17;;;;;;;24.37;63.35;97283.06;5019508;28;20225;-32
2022/09/18 03:10:32;;;;;;;1.20;1.20;;;;;;;24.43;62.71;97290.91;5020474;28;20607;-31
2022/09/18 03:12:59;;;;;;;1.37;1.30;;;;;;;24.37;62.99;97279.66;5018423;28;20229;-31
2022/09/18 03:15:26;;;;;;;1.40;1.30;;;;;;;24.43;63.38;97293.47;5020185;28;20202;-32
2022/09/18 03:17:53;;;;;;;1.23;1.20;;;;;;;24.42;63.28;97291.72;5031160;28;20590;-31
2022/09/18 03:20:19;;;;;;;1.40;1.30;;;;;;;24.29;63.09;97266.72;5018906;28;20489;-31
2022/09/18 03:22:46;;;;;;;1.17;1.17;;;;;;;24.43;62.87;97293.47;5022530;28;20245;-31
2022/09/18 03:25:13;;;;;;;1.20;1.20;;;;;;;24.44;63.15;97294.31;5018410;28;20210;-31
2022/09/18 03:27:41;;;;;;;1.27;1.17;;;;;;;24.43;62.87;97292.59;5020795;28;20230;-31
2022/09/18 03:30:08;;;;;;;1.40;1.30;;;;;;;24.44;62.75;97296.88;5030190;28;20226;-31
2022/09/18 03:32:35;;;;;;;1.20;1.20;;;;;;;24.43;62.86;97290.91;5027266;28;20218;-32
2022/09/18 03:35:01;;;;;;;1.10;1.10;;;;;;;24.43;62.81;97288.34;5024922;28;20206;-31
2022/09/18 03:37:28;;;;;;;1.07;1.07;;;;;;;24.43;63.29;97290.03;5018212;28;20580;-31
2022/09/18 03:39:54;;;;;;;1.20;1.20;;;;;;;24.44;62.94;97291.75;5022285;28;20217;-31
2022/09/18 03:42:21;;;;;;;1.30;1.20;;;;;;;24.44;63.65;97286.59;5018042;28;20641;-31
2022/09/18 03:44:47;;;;;;;1.20;1.20;;;;;;;24.43;63.62;97290.91;5020545;28;20217;-31
2022/09/18 03:47:14;;;;;;;1.30;1.30;;;;;;;24.43;63.00;97287.47;5017068;28;20210;-31
2022/09/18 03:49:41;;;;;;;1.23;1.20;;;;;;;24.42;62.79;97288.31;5019707;28;20222;-31
2022/09/18 03:52:07;;;;;;;1.27;1.17;;;;;;;24.44;62.74;97296.88;5029762;28;20202;-31
2022/09/18 03:54:34;;;;;;;1.40;1.30;;;;;;;24.43;62.67;97295.16;5017228;28;20223;-31
2022/09/18 03:57:00;;;;;;;1.30;1.20;;;;;;;24.42;62.85;97290.88;5025182;28;20388;-31
2022/09/18 03:59:27;;;;;;;1.30;1.20;;;;;;;24.41;63.30;97289.13;5027081;28;20236;-31
2022/09/18 04:01:53;;;;;;;1.30;1.20;;;;;;;24.40;63.11;97293.44;5023230;28;20206;-31
2022/09/18 04:04:20;;;;;;;1.10;1.10;;;;;;;24.40;63.29;97292.56;5021474;28;20210;-31
2022/09/18 04:06:46;;;;;;;1.23;1.23;;;;;;;24.38;62.93;97292.53;5017971;28;20575;-31
2022/09/18 04:09:13;;;;;;;1.37;1.27;;;;;;;24.29;63.30;97277.00;5021013;28;20229;-31
2022/09/18 04:11:39;;;;;;;1.50;1.40;;;;;;;24.37;63.38;97285.66;5016960;28;20202;-31
2022/09/18 04:14:06;;;;;;;1.40;1.30;;;;;;;24.37;63.22;97297.66;5022989;28;20231;-31
2022/09/18 04:16:32;;;;;;;6.43;1.20;;;;;;;24.37;63.51;97298.50;5019095;28;20198;-31
2022/09/18 04:18:59;;;;;;;1.20;1.20;;;;;;;24.37;63.52;97292.50;5020213;28;20213;-31
2022/09/18 04:21:26;;;;;;;1.30;1.20;;;;;;;24.37;63.23;97293.34;5020292;28;20206;-31
2022/09/18 04:23:52;;;;;;;1.23;1.23;;;;;;;24.37;63.46;97297.66;5018266;28;20572;-31
2022/09/18 04:26:19;;;;;;;1.40;1.30;;;;;;;24.36;63.39;97293.34;5027057;28;20199;-31
2022/09/18 04:28:45;;;;;;;1.23;1.20;;;;;;;24.36;63.50;97298.47;5016785;28;20202;-31
2022/09/18 04:31:12;;;;;;;1.20;1.10;;;;;;;24.35;63.66;97297.63;5022988;28;20228;-31
2022/09/18 04:33:38;;;;;;;1.23;1.13;;;;;;;24.33;63.55;97301.88;5016492;28;20234;-31
2022/09/18 04:36:05;;;;;;;2.10;1.30;;;;;;;24.35;63.38;97296.75;5017627;28;20213;-31
2022/09/18 04:38:32;;;;;;;1.60;1.30;;;;;;;24.33;63.43;97301.00;5016656;28;20210;-31
2022/09/18 04:40:59;;;;;;;1.50;1.40;;;;;;;24.34;63.43;97302.75;5015440;28;20226;-31
2022/09/18 04:43:26;;;;;;;1.40;1.30;;;;;;;24.38;62.88;97310.50;5021996;28;20208;-31
2022/09/18 04:45:53;;;;;;;1.40;1.23;;;;;;;24.39;63.30;97314.81;5018617;28;20206;-31
2022/09/18 04:48:20;;;;;;;1.27;1.27;;;;;;;24.40;63.34;97320.81;5021360;28;20201;-32
2022/09/18 04:50:47;;;;;;;1.20;1.20;;;;;;;24.41;62.85;97309.69;5020439;28;20248;-31
2022/09/18 04:53:13;;;;;;;1.20;1.20;;;;;;;24.38;63.27;97299.38;5019831;28;20700;-31
2022/09/18 04:55:46;;;;;;;1.47;1.30;;;;;;;24.42;63.02;97312.28;5018885;28;20704;-31
2022/09/18 04:58:13;;;;;;;1.23;1.23;;;;;;;24.41;63.21;97309.69;5018931;28;20202;-31
2022/09/18 05:00:39;;;;;;;1.20;1.20;;;;;;;24.42;62.96;97312.28;5028430;28;20222;-31
2022/09/18 05:03:06;;;;;;;1.17;1.17;;;;;;;24.42;63.25;97319.97;5017736;28;20268;-31
2022/09/18 05:05:32;;;;;;;1.23;1.23;;;;;;;24.43;63.15;97311.44;5014556;28;20197;-31
2022/09/18 05:08:00;;;;;;;1.20;1.20;;;;;;;24.44;63.00;97314.88;5017175;28;20197;-31
2022/09/18 05:10:26;;;;;;;1.40;1.30;;;;;;;24.44;62.79;97314.88;5011973;28;20674;-31
2022/09/18 05:12:53;;;;;;;1.33;1.30;;;;;;;24.44;62.70;97314.88;5017178;28;20209;-31
2022/09/18 05:15:20;;;;;;;1.33;1.23;;;;;;;24.44;62.90;97315.75;5023792;28;20202;-31
2022/09/18 05:17:47;;;;;;;1.73;1.43;;;;;;;24.42;63.26;97303.72;5014887;28;20201;-31
2022/09/18 05:20:13;;;;;;;1.40;1.30;;;;;;;24.45;63.15;97316.63;5021696;28;20229;-31
2022/09/18 05:22:45;;;;;;;1.37;1.27;;;;;;;24.45;63.23;97322.59;5017398;28;20574;-31
2022/09/18 05:25:12;;;;;;;1.10;1.10;;;;;;;24.46;63.10;97329.47;5016718;28;20214;-31
2022/09/18 05:27:38;;;;;;;1.30;1.20;;;;;;;24.46;62.83;97331.19;5016183;28;20206;-31
2022/09/18 05:30:05;;;;;;;1.27;1.23;;;;;;;24.43;62.89;97336.25;5029329;28;20252;-31
2022/09/18 05:32:32;;;;;;;1.57;1.47;;;;;;;24.41;62.63;97333.69;5028483;28;20572;-31
2022/09/18 05:34:59;;;;;;;1.13;1.13;;;;;;;24.47;63.12;97340.59;5017150;28;20221;-31
2022/09/18 05:37:25;;;;;;;1.30;1.20;;;;;;;24.47;63.09;97345.75;5020879;28;20666;-31
2022/09/18 05:39:52;;;;;;;1.47;1.37;;;;;;;24.47;62.84;97348.31;5019118;28;20226;-31
2022/09/18 05:42:18;;;;;;;1.40;1.30;;;;;;;24.47;62.77;97335.47;5020537;28;20216;-31
2022/09/18 05:44:45;;;;;;;1.43;1.20;;;;;;;24.44;63.07;97341.44;5016966;28;20201;-31
2022/09/18 05:47:12;;;;;;;1.50;1.40;;;;;;;24.48;63.03;97337.22;5019026;28;20207;-31
2022/09/18 05:49:38;;;;;;;3.10;1.40;;;;;;;24.48;62.76;97339.78;5024104;28;20257;-31
2022/09/18 05:52:05;;;;;;;1.23;1.23;;;;;;;24.48;62.92;97342.34;5023519;28;20206;-31
2022/09/18 05:54:35;;;;;;;1.50;1.40;;;;;;;24.48;63.20;97329.50;5016314;28;20237;-31
2022/09/18 05:57:01;;;;;;;1.40;1.30;;;;;;;24.46;62.76;97326.91;5021078;28;20217;-31
2022/09/18 05:59:28;;;;;;;1.13;1.13;;;;;;;24.49;62.80;97331.22;5020590;28;20233;-31
2022/09/18 06:01:54;;;;;;;1.53;1.43;;;;;;;24.49;62.96;97344.94;5019052;28;20213;-31
2022/09/18 06:04:21;;;;;;;1.20;1.20;;;;;;;24.49;62.58;97349.19;5020904;28;20226;-31
2022/09/18 06:06:47;;;;;;;1.10;1.10;;;;;;;24.49;62.89;97346.63;5016922;28;20280;-31
2022/09/18 06:09:14;;;;;;;1.40;1.30;;;;;;;24.46;62.82;97347.47;5027243;28;20222;-31
2022/09/18 06:11:40;;;;;;;1.20;1.20;;;;;;;24.49;62.71;97354.34;5015634;28;20202;-31
2022/09/18 06:14:07;;;;;;;1.30;1.20;;;;;;;24.49;62.65;97349.19;5022174;28;20221;-31
2022/09/18 06:16:34;;;;;;;1.40;1.30;;;;;;;24.46;62.89;97350.03;5024952;28;20221;-31
2022/09/18 06:19:07;;;;;;;1.20;1.10;;;;;;;24.47;62.82;97349.19;5020620;28;20481;-31
2022/09/18 06:21:33;;;;;;;1.50;1.20;;;;;;;24.49;63.08;97350.06;5026361;28;20206;-31
2022/09/18 06:24:00;;;;;;;1.40;1.30;;;;;;;24.46;62.74;97339.75;5021986;28;21544;-31
2022/09/18 06:26:27;;;;;;;1.13;1.13;;;;;;;24.50;62.79;97350.91;5018409;28;20217;-31
2022/09/18 06:28:53;;;;;;;1.20;1.20;;;;;;;24.49;62.66;97350.06;5015997;28;20677;-31
2022/09/18 06:31:20;;;;;;;1.13;1.10;;;;;;;24.49;62.96;97344.94;5031501;28;20209;-31
2022/09/18 06:33:47;;;;;;;1.30;1.20;;;;;;;24.49;62.73;97342.38;5023312;28;20237;-31
2022/09/18 06:36:15;;;;;;;1.17;1.10;;;;;;;24.45;62.70;97339.72;5020693;28;20529;-31
2022/09/18 06:38:41;;;;;;;1.30;1.20;;;;;;;24.50;62.49;97353.50;5014936;28;20212;-31
2022/09/18 06:41:08;;;;;;;1.10;1.10;;;;;;;24.50;62.55;97351.78;5017638;28;20229;-31
2022/09/18 06:43:35;;;;;;;1.50;1.40;;;;;;;24.50;62.87;97346.66;5017343;28;20254;-31
2022/09/18 06:46:02;;;;;;;1.50;1.30;;;;;;;24.49;62.61;97352.66;5015654;28;20225;-31
2022/09/18 06:48:30;;;;;;;1.37;1.27;;;;;;;24.50;62.45;97345.78;5023846;28;20239;-31
2022/09/18 06:50:57;;;;;;;1.10;1.10;;;;;;;24.50;62.97;97348.34;5019604;28;20615;-31
2022/09/18 06:53:23;;;;;;;1.47;1.37;;;;;;;24.46;63.04;97333.75;5018880;28;20233;-31
2022/09/18 06:55:50;;;;;;;1.43;1.00;;;;;;;24.51;62.65;97352.66;5020044;28;20214;-31
2022/09/18 06:58:17;;;;;;;1.10;1.00;;;;;;;24.48;62.48;97355.19;5025315;28;20202;-31
2022/09/18 07:00:44;;;;;;;1.10;1.10;;;;;;;24.45;63.19;97347.44;5017955;28;20228;-31
2022/09/18 07:03:11;;;;;;;1.40;1.30;;;;;;;24.50;62.85;97358.63;5017373;28;20628;-31
2022/09/18 07:05:40;;;;;;;1.10;1.10;;;;;;;24.50;62.81;97361.19;5016995;28;20582;-31
2022/09/18 07:08:07;;;;;;;1.40;1.30;;;;;;;24.48;62.95;97352.63;5017944;28;20207;-31
2022/09/18 07:10:34;;;;;;;1.30;1.20;;;;;;;24.50;62.50;97362.06;5015547;28;20234;-31
2022/09/18 07:13:01;;;;;;;1.20;1.20;;;;;;;24.50;62.50;97364.63;5016047;28;20213;-31
2022/09/18 07:15:27;;;;;;;1.30;1.20;;;;;;;24.50;62.63;97367.22;5026183;28;20592;-31
2022/09/18 07:17:55;;;;;;;1.07;1.07;;;;;;;24.49;62.98;97357.78;5013618;28;20605;-31
2022/09/18 07:20:21;;;;;;;1.17;1.10;;;;;;;24.49;62.63;97357.78;5020241;28;20233;-31
2022/09/18 07:22:56;;;;;;;1.23;1.20;;;;;;;24.50;63.07;97356.06;5017178;28;20205;-31
2022/09/18 07:25:23;;;;;;;1.40;1.30;;;;;;;24.50;62.75;97354.38;5018149;28;20205;-31
2022/09/18 07:27:50;;;;;;;1.30;1.20;;;;;;;24.50;63.01;97349.22;5028393;28;20197;-31
2022/09/18 07:30:16;;;;;;;1.30;1.20;;;;;;;24.50;62.67;97359.50;5003949;28;20229;-31
2022/09/18 07:32:43;;;;;;;1.30;1.20;;;;;;;24.51;62.92;97357.81;5024785;28;20217;-31
2022/09/18 07:35:09;;;;;;;1.20;1.10;;;;;;;24.50;62.70;97362.06;5016290;28;20230;-31
2022/09/18 07:37:37;;;;;;;1.20;1.10;;;;;;;24.51;63.06;97362.94;5020449;28;20205;-31
2022/09/18 07:40:06;;;;;;;1.30;1.20;;;;;;;24.50;62.90;97356.94;5018965;28;20222;-31
2022/09/18 07:42:32;;;;;;;1.20;1.20;;;;;;;24.33;62.64;97329.25;5017232;28;20202;-31
2022/09/18 07:44:59;;;;;;;1.10;1.10;;;;;;;24.50;63.06;97361.19;5015050;28;20225;-31
2022/09/18 07:47:26;;;;;;;1.10;1.10;;;;;;;24.51;62.53;97365.50;5016835;28;20210;-31
2022/09/18 07:49:53;;;;;;;1.30;1.20;;;;;;;24.50;62.89;97364.63;5023260;28;20225;-31
2022/09/18 07:52:20;;;;;;;1.10;1.10;;;;;;;24.51;62.55;97379.22;5019407;28;20393;-31
2022/09/18 07:54:46;;;;;;;1.30;1.20;;;;;;;24.51;62.80;97379.22;5014453;28;20237;-31
2022/09/18 07:57:13;;;;;;;1.20;1.20;;;;;;;24.51;63.03;97363.78;5020525;28;21124;-31
2022/09/18 07:59:39;;;;;;;1.10;1.10;;;;;;;24.51;62.60;97368.94;5016714;28;20226;-31
2022/09/18 08:02:06;;;;;;;1.33;1.27;;;;;;;24.52;62.62;97359.53;5018325;28;20206;-31
2022/09/18 08:04:32;;;;;;;1.10;1.10;;;;;;;24.52;62.72;97364.66;5017190;28;20202;-31
2022/09/18 08:07:02;;;;;;;1.07;1.07;;;;;;;24.50;62.31;97362.06;5015406;28;20632;-31
2022/09/18 08:09:29;;;;;;;1.33;1.20;;;;;;;24.51;62.63;97370.66;5016400;28;20701;-31
2022/09/18 08:11:56;;;;;;;1.27;1.20;;;;;;;24.49;62.33;97370.63;5014161;28;20210;-31
2022/09/18 08:14:22;;;;;;;1.23;1.13;;;;;;;24.49;62.89;97373.19;5021243;28;20229;-31
2022/09/18 08:16:54;;;;;;;1.00;1.00;;;;;;;24.45;63.01;97371.41;5015007;28;20272;-31
2022/09/18 08:19:22;;;;;;;1.20;1.20;;;;;;;24.45;62.93;97381.69;5020083;28;20252;-31
2022/09/18 08:21:48;;;;;;;1.00;1.00;;;;;;;24.40;62.65;97361.91;5014289;28;20210;-31
2022/09/18 08:24:16;;;;;;;1.10;1.10;;;;;;;24.31;62.96;97347.19;5017394;28;20197;-31
2022/09/18 08:26:43;;;;;;;1.23;1.20;;;;;;;24.43;63.21;97369.66;5014242;28;20245;-31
2022/09/18 08:29:12;;;;;;;1.30;1.20;;;;;;;24.45;62.78;97380.84;5013547;28;20217;-31
2022/09/18 08:31:39;;;;;;;1.20;1.20;;;;;;;24.48;62.84;97375.75;5064552;23;20236;-25
2022/09/18 08:34:05;;;;;;;1.10;1.10;;;;;;;24.47;62.82;97377.44;5058194;28;20625;-24
2022/09/18 08:36:32;;;;;;;1.10;1.10;;;;;;;24.48;62.95;97380.88;5054057;28;20212;-25
2022/09/18 08:38:59;;;;;;;1.20;1.20;;;;;;;24.48;62.80;97380.88;5051143;28;20208;-24
2022/09/18 08:41:28;;;;;;;1.20;1.20;;;;;;;24.47;62.87;97386.84;5056978;28;20622;-25
2022/09/18 08:44:13;;;;;;;1.10;1.10;;;;;;;24.48;62.58;97388.59;5049384;28;20196;-25
2022/09/18 08:46:42;;;;;;;1.30;1.20;;;;;;;24.40;62.58;97372.19;5050315;28;20220;-25
2022/09/18 08:49:36;;;;;;;1.10;1.10;;;;;;;24.26;62.72;97351.41;5053848;28;20768;-25
2022/09/18 08:52:11;;;;;;;1.27;1.20;;;;;;;24.23;62.67;97342.78;5052710;28;20224;-25
2022/09/18 08:54:55;;;;;;;1.40;1.30;;;;;;;24.46;62.74;97383.44;5050525;28;20215;-25
2022/09/18 08:57:24;;;;;;;1.20;1.10;;;;;;;24.37;62.55;97370.41;5057634;28;20204;-25
2022/09/18 09:00:06;;;;;;;1.30;1.20;;;;;;;24.41;62.62;97373.91;5035636;28;20205;-25
2022/09/18 09:02:36;;;;;;;1.37;1.27;;;;;;;24.47;62.59;97386.84;5059791;28;20271;-24
2022/09/18 09:05:07;;;;;;;1.20;1.10;;;;;;;24.46;62.94;97386.00;5051474;28;20607;-25
2022/09/18 09:07:45;;;;;;;1.10;1.10;;;;;;;24.46;62.89;97380.00;5043218;28;20203;-25
2022/09/18 09:10:39;;;;;;;1.37;1.30;;;;;;;24.46;62.93;97380.88;5058253;28;20200;-25
2022/09/18 09:13:39;;;;;;;1.20;1.20;;;;;;;24.46;62.77;97382.56;5050096;28;20211;-25
2022/09/18 09:16:10;;;;;;;1.30;1.20;;;;;;;24.46;63.13;97387.69;5061492;28;20598;-25
2022/09/18 09:19:02;;;;;;;1.20;1.20;;;;;;;24.46;62.62;97393.72;5062116;28;20204;-24
2022/09/18 09:21:48;;;;;;;1.33;1.23;;;;;;;24.46;62.93;97386.00;5056798;28;20785;-25
2022/09/18 09:24:42;;;;;;;1.20;1.20;;;;;;;24.46;62.52;97387.69;5059344;28;20196;-25
2022/09/18 09:27:26;;;;;;;1.07;1.07;;;;;;;24.45;62.77;97385.97;5057144;28;20677;-25
2022/09/18 09:30:13;;;;;;;1.13;1.13;;;;;;;24.45;62.99;97381.69;5055216;28;20215;-25
2022/09/18 09:32:44;;;;;;;1.20;1.20;;;;;;;24.44;62.77;97387.66;5059556;28;20209;-26
2022/09/18 09:35:44;;;;;;;1.10;1.10;;;;;;;24.45;63.04;97385.97;5061652;28;20598;-25
2022/09/18 09:38:37;;;;;;;1.27;1.23;;;;;;;24.45;63.01;97391.97;5059458;28;20207;-25
2022/09/18 09:41:27;;;;;;;1.20;1.20;;;;;;;24.45;62.91;97383.41;5052146;28;20227;-25
2022/09/18 09:44:14;;;;;;;1.50;1.40;;;;;;;24.44;63.19;97382.53;5050464;28;20676;-25
2022/09/18 09:47:03;;;;;;;1.40;1.30;;;;;;;24.22;62.72;97346.22;5058418;28;20207;-25
2022/09/18 09:49:45;;;;;;;1.37;1.27;;;;;;;24.45;62.63;97393.69;5056307;28;20261;-25
2022/09/18 09:52:20;;;;;;;1.10;1.10;;;;;;;24.41;62.70;97385.06;5060961;28;20221;-25
2022/09/18 09:54:49;;;;;;;2.90;1.20;;;;;;;24.45;63.04;97393.69;5052185;28;20231;-24
2022/09/18 09:57:23;;;;;;;1.17;1.17;;;;;;;24.44;62.74;97390.25;5049092;28;20203;-25
2022/09/18 09:59:52;;;;;;;1.63;1.03;;;;;;;24.40;63.12;97385.91;5056991;28;20693;-25
2022/09/18 10:02:38;;;;;;;1.30;1.20;;;;;;;24.44;62.94;97389.38;5053478;28;20717;-25
2022/09/18 10:05:23;;;;;;;1.00;1.00;;;;;;;24.44;62.91;97385.09;5055317;28;20207;-25
2022/09/18 10:08:08;;;;;;;1.10;1.10;;;;;;;24.45;62.70;97386.81;5055656;28;20211;-24
2022/09/18 10:10:58;;;;;;;1.20;1.20;;;;;;;24.44;63.03;97392.81;5052674;28;20225;-25
2022/09/18 10:13:34;;;;;;;1.10;1.10;;;;;;;24.44;62.64;97390.25;5048031;28;20212;-25
2022/09/18 10:16:37;;;;;;;1.30;1.20;;;;;;;24.45;62.67;97389.38;5065950;28;20232;-25
2022/09/18 10:19:04;;;;;;;1.20;1.10;;;;;;;24.45;63.10;97403.97;5057619;28;20207;-25
2022/09/18 10:21:36;;;;;;;1.30;1.20;;;;;;;24.44;62.78;97389.38;5056502;28;20636;-25
2022/09/18 10:24:08;;;;;;;1.20;1.20;;;;;;;24.44;63.16;97397.06;5056153;28;20204;-25
2022/09/18 10:27:01;;;;;;;1.30;1.20;;;;;;;24.44;62.80;97387.66;5054971;28;20209;-25
2022/09/18 10:29:28;;;;;;;1.23;1.20;;;;;;;24.44;62.98;97395.38;5052485;28;20605;-25
2022/09/18 10:32:00;;;;;;;1.37;1.27;;;;;;;24.45;62.73;97388.53;5058703;28;20228;-25
2022/09/18 10:34:44;;;;;;;1.20;1.10;;;;;;;24.44;62.84;97379.09;5054867;28;20216;-25
2022/09/18 10:37:17;;;;;;;1.30;1.20;;;;;;;24.43;63.09;97380.81;5064511;28;20212;-25
2022/09/18 10:39:55;;;;;;;1.30;1.20;;;;;;;24.33;63.07;97366.06;5050648;28;20204;-25
2022/09/18 10:42:23;;;;;;;1.20;1.20;;;;;;;24.41;63.22;97373.91;5054496;28;20252;-25
2022/09/18 10:44:56;;;;;;;1.33;1.30;;;;;;;24.44;62.66;97381.66;5061947;28;20205;-25
2022/09/18 10:47:29;;;;;;;1.10;1.10;;;;;;;24.44;62.86;97389.38;5056825;28;20245;-25
2022/09/18 10:50:06;;;;;;;1.30;1.20;;;;;;;24.44;62.91;97391.94;5057680;28;20587;-25
2022/09/18 10:52:58;;;;;;;1.10;1.10;;;;;;;24.44;63.11;97385.09;5040626;28;20204;-25
2022/09/18 10:55:26;;;;;;;1.00;1.00;;;;;;;24.45;62.63;97378.28;5047855;28;20598;-25
2022/09/18 10:57:56;;;;;;;1.10;1.10;;;;;;;24.44;63.04;97379.97;5059535;28;20212;-25
2022/09/18 11:00:23;;;;;;;1.33;1.30;;;;;;;24.44;62.99;97382.53;5057779;28;20221;-25
2022/09/18 11:02:58;;;;;;;1.40;1.30;;;;;;;24.44;62.71;97374.81;5058645;28;20241;-25
2022/09/18 11:05:33;;;;;;;1.50;1.40;;;;;;;24.34;62.95;97351.53;5064642;28;20670;-25
2022/09/18 11:08:02;;;;;;;1.20;1.20;;;;;;;24.44;62.96;97371.38;5058549;28;20636;-25
2022/09/18 11:10:31;;;;;;;1.10;1.10;;;;;;;24.44;62.82;97379.09;5050442;28;20255;-25
2022/09/18 11:12:59;;;;;;;1.17;1.13;;;;;;;24.24;62.82;97340.25;5054344;28;20226;-25
2022/09/18 11:15:28;;;;;;;1.40;1.30;;;;;;;24.44;62.85;97372.25;5053679;28;20220;-25
2022/09/18 11:17:55;;;;;;;1.10;1.10;;;;;;;24.26;63.10;97343.72;5055608;28;20200;-25
2022/09/18 11:20:42;;;;;;;1.20;1.20;;;;;;;24.25;63.12;97330.84;5061834;28;20221;-25
2022/09/18 11:23:17;;;;;;;1.20;1.20;;;;;;;24.43;63.04;97370.53;5043375;28;20211;-25
2022/09/18 11:25:44;;;;;;;1.10;1.10;;;;;;;24.38;62.94;97361.88;5060299;28;20196;-25
2022/09/18 11:28:22;;;;;;;1.20;1.10;;;;;;;24.43;63.01;97367.09;5052299;28;20207;-25
2022/09/18 11:30:58;;;;;;;1.20;1.10;;;;;;;24.42;63.24;97368.78;5055078;28;20251;-25
2022/09/18 11:33:32;;;;;;;1.20;1.20;;;;;;;24.36;62.78;97353.28;5057036;28;20228;-25
2022/09/18 11:36:01;;;;;;;1.17;1.07;;;;;;;24.40;62.83;97355.06;5048923;28;20227;-25
2022/09/18 11:38:28;;;;;;;1.10;1.10;;;;;;;24.36;63.21;97344.69;5054345;28;20201;-25
2022/09/18 11:40:56;;;;;;;1.20;1.20;;;;;;;24.33;62.95;97345.53;5034772;28;20221;-25
2022/09/18 11:43:28;;;;;;;1.10;1.10;;;;;;;24.41;63.11;97356.78;5055182;28;20596;-24
2022/09/18 11:46:05;;;;;;;1.10;1.10;;;;;;;24.42;63.01;97352.53;5051889;28;20220;-25
2022/09/18 11:48:36;;;;;;;1.10;1.10;;;;;;;24.42;62.94;97348.25;5058730;28;20670;-25
2022/09/18 11:51:04;;;;;;;1.10;1.10;;;;;;;24.42;63.12;97360.25;5050387;28;20220;-25
2022/09/18 11:53:36;;;;;;;1.13;1.13;;;;;;;24.37;62.69;97341.31;5046883;28;20211;-25